createdAt,value
2023-04-18T00:01:50.657Z,52.60
2023-04-18T00:06:57.435Z,59.30
2023-04-18T00:12:05.020Z,52.40
2023-04-18T00:17:13.387Z,51.10
2023-04-18T00:22:22.533Z,48.70
2023-04-18T00:27:29.853Z,54.00
2023-04-18T00:32:36.691Z,59.30
2023-04-18T00:37:43.650Z,63.30
2023-04-18T00:42:50.658Z,61.80
2023-04-18T00:47:57.870Z,56.40
2023-04-18T00:53:05.037Z,59.40
2023-04-18T00:58:12.311Z,59.50
2023-04-18T01:03:19.958Z,54.50
2023-04-18T01:08:28.007Z,61.30
2023-04-18T01:13:37.736Z,53.50
2023-04-18T01:18:44.926Z,54.40
2023-04-18T01:23:52.428Z,57.10
2023-04-18T01:28:59.411Z,54.80
2023-04-18T01:34:07.377Z,49.10
2023-04-18T01:39:14.816Z,55.50
2023-04-18T01:44:21.702Z,48.90
2023-04-18T01:49:28.559Z,50.20
2023-04-18T01:54:35.369Z,48.90
2023-04-18T01:59:43.013Z,49.30
2023-04-18T02:04:49.886Z,49.80
2023-04-18T02:09:56.966Z,48.60
2023-04-18T02:15:04.155Z,49.20
2023-04-18T02:20:15.841Z,50.40
2023-04-18T02:25:23.862Z,49.60
2023-04-18T02:30:30.756Z,51.90
2023-04-18T02:35:38.499Z,48.40
2023-04-18T02:40:45.815Z,47.20
2023-04-18T02:45:52.832Z,44.90
2023-04-18T02:51:05.755Z,43.90
2023-04-18T02:56:16.914Z,50.00
2023-04-18T03:01:47.002Z,46.30
2023-04-18T03:06:59.204Z,49.40
2023-04-18T03:12:06.990Z,45.90
2023-04-18T03:17:15.277Z,47.30
2023-04-18T03:22:26.904Z,45.40
2023-04-18T03:27:36.158Z,46.40
2023-04-18T03:32:43.549Z,48.40
2023-04-18T03:37:50.536Z,49.80
2023-04-18T03:43:23.339Z,51.40
2023-04-18T03:48:35.812Z,50.30
2023-04-18T03:53:43.627Z,59.50
2023-04-18T03:58:50.637Z,64.30
2023-04-18T04:03:58.497Z,62.90
2023-04-18T04:09:06.067Z,63.10
2023-04-18T04:14:13.500Z,65.30
2023-04-18T04:19:24.082Z,65.00
2023-04-18T04:24:38.595Z,66.10
2023-04-18T04:29:46.337Z,67.00
2023-04-18T04:34:53.725Z,62.40
2023-04-18T04:40:02.801Z,67.30
2023-04-18T04:45:36.423Z,65.10
2023-04-18T04:50:43.665Z,61.70
2023-04-18T04:55:52.247Z,57.30
2023-04-18T05:00:59.067Z,61.20
2023-04-18T05:06:06.830Z,54.20
2023-04-18T05:11:13.837Z,56.60
2023-04-18T05:16:20.998Z,60.50
2023-04-18T05:21:28.836Z,66.00
2023-04-18T05:26:35.824Z,59.30
2023-04-18T05:31:42.725Z,64.60
2023-04-18T05:36:50.617Z,72.00
2023-04-18T05:41:58.417Z,64.80
2023-04-18T05:47:06.809Z,66.50
2023-04-18T05:52:13.729Z,69.00
2023-04-18T06:03:15.145Z,59.20
2023-04-18T06:08:22.199Z,58.40
2023-04-18T06:13:29.964Z,55.10
2023-04-18T06:18:37.022Z,51.40
2023-04-18T06:23:44.093Z,51.10
2023-04-18T06:28:51.011Z,54.60
2023-04-18T06:33:57.993Z,55.10
2023-04-18T06:39:05.035Z,53.70
2023-04-18T06:44:11.956Z,49.90
2023-04-18T06:49:19.701Z,48.20
2023-04-18T06:54:27.103Z,47.00
2023-04-18T06:59:35.661Z,41.10
2023-04-18T07:04:42.711Z,37.60
2023-04-18T07:09:50.328Z,38.30
2023-04-18T07:14:57.909Z,41.60
2023-04-18T07:20:05.083Z,33.20
2023-04-18T07:25:12.579Z,31.80
2023-04-18T07:30:20.276Z,26.00
2023-04-18T07:35:27.258Z,25.80
2023-04-18T07:40:34.242Z,25.60
2023-04-18T07:45:43.386Z,25.60
2023-04-18T07:50:50.616Z,23.70
2023-04-18T07:55:58.655Z,23.40
2023-04-18T08:01:06.307Z,24.60
2023-04-18T08:06:13.160Z,25.60
2023-04-18T08:11:20.227Z,24.20
2023-04-18T08:16:27.455Z,28.40
2023-04-18T08:21:34.849Z,26.10
2023-04-18T08:26:41.730Z,27.20
2023-04-18T08:31:49.061Z,27.50
2023-04-18T08:36:56.685Z,27.70
2023-04-18T08:42:04.892Z,29.40
2023-04-18T08:47:12.796Z,28.70
2023-04-18T08:52:19.802Z,30.00
2023-04-18T08:57:27.770Z,29.30
2023-04-18T09:02:43.079Z,34.00
2023-04-18T09:07:51.852Z,33.90
2023-04-18T09:13:36.425Z,35.40
2023-04-18T09:19:05.169Z,35.70
2023-04-18T09:24:24.555Z,37.30
2023-04-18T09:29:50.351Z,33.40
2023-04-18T09:35:01.399Z,33.70
2023-04-18T09:40:19.842Z,33.90
2023-04-18T09:45:27.828Z,34.20
2023-04-18T09:50:38.056Z,36.70
2023-04-18T09:55:45.271Z,35.00
2023-04-18T10:00:54.639Z,29.70
2023-04-18T10:06:01.783Z,35.50
2023-04-18T10:11:08.773Z,31.30
2023-04-18T10:16:17.014Z,33.90
2023-04-18T10:21:24.033Z,25.40
2023-04-18T10:26:50.436Z,28.00
2023-04-18T10:31:57.719Z,29.00
2023-04-18T10:37:08.276Z,36.50
2023-04-18T10:42:15.163Z,34.30
2023-04-18T10:47:25.158Z,33.50
2023-04-18T10:52:32.697Z,30.10
2023-04-18T10:57:45.633Z,28.90
2023-04-18T11:02:56.512Z,32.50
2023-04-18T11:13:09.201Z,35.60
2023-04-18T11:18:16.445Z,35.90
2023-04-18T11:23:25.490Z,35.00
2023-04-18T11:28:33.043Z,39.10
2023-04-18T11:33:40.871Z,36.30
2023-04-18T11:38:48.080Z,33.10
2023-04-18T11:43:55.146Z,36.00
2023-04-18T11:49:02.230Z,34.90
2023-04-18T11:54:29.397Z,30.90
2023-04-18T11:59:37.301Z,30.30
2023-04-18T12:04:55.413Z,33.20
2023-04-18T12:10:03.104Z,36.20
2023-04-18T12:15:17.000Z,32.80
2023-04-18T12:20:40.000Z,29.90
2023-04-18T12:25:59.260Z,33.40
2023-04-18T12:31:07.586Z,30.20
2023-04-18T12:36:14.604Z,27.80
2023-04-18T12:41:21.520Z,24.50
2023-04-18T12:46:28.660Z,34.20
2023-04-18T12:51:35.635Z,32.80
2023-04-18T12:56:42.543Z,31.40
2023-04-18T13:01:49.533Z,30.60
2023-04-18T13:06:56.489Z,30.60
2023-04-18T13:12:04.305Z,36.50
2023-04-18T13:17:11.267Z,38.40
2023-04-18T13:22:18.102Z,34.40
2023-04-18T13:27:25.002Z,32.90
2023-04-18T13:32:32.469Z,35.60
2023-04-18T13:37:39.764Z,35.10
2023-04-18T13:42:59.286Z,34.60
2023-04-18T13:48:07.366Z,28.10
2023-04-18T13:53:16.305Z,31.90
2023-04-18T13:58:23.154Z,29.00
2023-04-18T14:03:30.510Z,34.80
2023-04-18T14:08:37.583Z,27.40
2023-04-18T14:13:44.709Z,26.70
2023-04-18T14:18:51.813Z,25.10
2023-04-18T14:23:58.910Z,26.90
2023-04-18T14:29:05.770Z,27.00
2023-04-18T14:34:12.889Z,30.10
2023-04-18T14:39:19.758Z,26.70
2023-04-18T14:44:26.704Z,24.90
2023-04-18T14:49:34.410Z,26.90
2023-04-18T14:54:41.403Z,24.90
2023-04-18T14:59:48.336Z,22.50
2023-04-18T15:04:55.468Z,20.50
2023-04-18T15:10:02.363Z,19.00
2023-04-18T15:15:11.619Z,22.00
2023-04-18T15:20:18.837Z,25.10
2023-04-18T15:25:26.149Z,28.50
2023-04-18T15:30:33.083Z,25.20
2023-04-18T15:35:40.104Z,28.20
2023-04-18T15:40:47.008Z,31.30
2023-04-18T15:45:53.896Z,29.10
2023-04-18T15:51:00.920Z,28.80
2023-04-18T15:56:08.186Z,31.30
2023-04-18T16:01:16.156Z,31.20
2023-04-18T16:06:23.627Z,31.50
2023-04-18T16:11:30.495Z,32.60
2023-04-18T16:16:37.292Z,31.80
2023-04-18T16:21:44.115Z,35.30
2023-04-18T16:26:52.234Z,37.40
2023-04-18T16:31:59.153Z,35.40
2023-04-18T16:37:06.041Z,34.20
2023-04-18T16:42:15.358Z,32.30
2023-04-18T16:47:22.727Z,34.90
2023-04-18T16:52:29.578Z,32.10
2023-04-18T16:57:36.408Z,48.60
2023-04-18T17:02:43.832Z,39.40
2023-04-18T17:07:51.731Z,35.10
2023-04-18T17:12:59.269Z,36.40
2023-04-18T17:18:06.508Z,39.80
2023-04-18T17:23:13.507Z,41.10
2023-04-18T17:28:21.357Z,44.20
2023-04-18T17:33:28.294Z,41.70
2023-04-18T17:38:35.147Z,41.80
2023-04-18T17:43:42.238Z,40.30
2023-04-18T17:48:49.717Z,44.20
2023-04-18T17:53:56.486Z,50.00
2023-04-18T17:59:03.343Z,42.70
2023-04-18T18:04:10.785Z,39.30
2023-04-18T18:09:17.704Z,37.90
2023-04-18T18:14:24.747Z,38.60
2023-04-18T18:19:31.806Z,40.10
2023-04-18T18:24:38.903Z,40.70
2023-04-18T18:29:45.906Z,36.90
2023-04-18T18:34:52.827Z,38.50
2023-04-18T18:40:00.004Z,39.30
2023-04-18T18:45:08.496Z,42.10
2023-04-18T18:50:15.683Z,40.20
2023-04-18T18:55:22.726Z,40.20
2023-04-18T19:00:29.749Z,39.00
2023-04-18T19:05:36.815Z,34.30
2023-04-18T19:10:44.588Z,34.60
2023-04-18T19:15:51.618Z,39.20
2023-04-18T19:20:58.603Z,37.80
2023-04-18T19:26:05.527Z,38.80
2023-04-18T19:31:12.671Z,38.00
2023-04-18T19:36:19.986Z,39.00
2023-04-18T19:41:27.034Z,38.20
2023-04-18T19:46:34.214Z,36.80
2023-04-18T19:51:41.484Z,37.30
2023-04-18T19:56:48.357Z,37.00
2023-04-18T20:01:55.573Z,35.00
2023-04-18T20:07:03.793Z,41.10
2023-04-18T20:12:10.833Z,42.30
2023-04-18T20:17:18.054Z,37.70
2023-04-18T20:22:26.770Z,39.20
2023-04-18T20:27:33.891Z,38.00
2023-04-18T20:32:40.817Z,37.20
2023-04-18T20:37:49.973Z,38.80
2023-04-18T20:42:58.865Z,38.90
2023-04-18T20:48:06.585Z,40.50
2023-04-18T20:53:13.519Z,36.80
2023-04-18T20:58:20.732Z,36.50
2023-04-18T21:03:27.670Z,40.10
2023-04-18T21:08:37.952Z,37.60
2023-04-18T21:13:45.031Z,38.50
2023-04-18T21:18:52.002Z,40.10
2023-04-18T21:23:58.968Z,41.40
2023-04-18T21:29:06.660Z,36.70
2023-04-18T21:34:13.985Z,33.50
2023-04-18T21:39:21.150Z,33.20
2023-04-18T21:44:28.088Z,34.40
2023-04-18T21:49:35.118Z,40.00
2023-04-18T21:54:42.199Z,37.20
2023-04-18T21:59:49.137Z,38.20
2023-04-18T22:04:56.296Z,35.60
2023-04-18T22:10:03.948Z,35.60
2023-04-18T22:15:12.364Z,35.50
2023-04-18T22:20:19.371Z,35.40
2023-04-18T22:25:26.327Z,37.10
2023-04-18T22:30:33.353Z,37.90
2023-04-18T22:35:40.440Z,40.50
2023-04-18T22:40:47.454Z,27.60
2023-04-18T22:45:54.393Z,35.80
2023-04-18T22:51:01.823Z,40.50
2023-04-18T22:56:09.472Z,35.10
2023-04-18T23:01:16.537Z,34.20
2023-04-18T23:06:23.424Z,32.00
2023-04-18T23:11:30.492Z,34.30
2023-04-18T23:16:37.396Z,37.90
2023-04-18T23:21:44.387Z,37.20
2023-04-18T23:26:51.380Z,31.90
2023-04-18T23:31:58.424Z,33.30
2023-04-18T23:37:05.408Z,35.40
2023-04-18T23:42:12.249Z,31.10
2023-04-18T23:47:19.213Z,32.90
2023-04-18T23:52:26.411Z,33.60
2023-04-18T23:57:33.389Z,33.30
